createdAt,value
2018-02-08T00:01:27.795Z,-4.45
2018-02-08T00:03:55.403Z,-4.54
2018-02-08T00:06:22.992Z,-4.54
2018-02-08T00:08:50.693Z,-4.41
2018-02-08T00:11:18.279Z,-4.45
2018-02-08T00:13:45.878Z,-4.62
2018-02-08T00:16:13.455Z,-4.73
2018-02-08T00:18:41.070Z,-4.63
2018-02-08T00:21:08.658Z,-4.56
2018-02-08T00:23:36.245Z,-4.63
2018-02-08T00:26:04.609Z,-4.70
2018-02-08T00:28:32.186Z,-4.80
2018-02-08T00:30:59.770Z,-4.79
2018-02-08T00:33:27.359Z,-4.62
2018-02-08T00:35:55.031Z,-4.54
2018-02-08T00:38:22.620Z,-4.61
2018-02-08T00:40:50.242Z,-4.70
2018-02-08T00:43:17.961Z,-4.61
2018-02-08T00:45:45.590Z,-4.85
2018-02-08T00:48:13.177Z,-4.94
2018-02-08T00:50:40.758Z,-4.84
2018-02-08T00:53:08.348Z,-4.92
2018-02-08T00:55:35.934Z,-4.92
2018-02-08T00:58:03.590Z,-4.97
2018-02-08T01:00:31.983Z,-4.96
2018-02-08T01:02:59.548Z,-5.05
2018-02-08T01:05:27.130Z,-4.99
2018-02-08T01:07:54.718Z,-5.15
2018-02-08T01:10:22.418Z,-5.00
2018-02-08T01:12:50.003Z,-5.06
2018-02-08T01:15:17.637Z,-4.88
2018-02-08T01:17:46.127Z,-5.06
2018-02-08T01:20:14.311Z,-5.16
2018-02-08T01:22:41.894Z,-4.95
2018-02-08T01:25:09.482Z,-5.02
2018-02-08T01:27:37.070Z,-5.02
2018-02-08T01:30:04.675Z,-5.23
2018-02-08T01:32:33.770Z,-5.15
2018-02-08T01:35:01.438Z,-5.13
2018-02-08T01:37:29.030Z,-4.98
2018-02-08T01:39:56.609Z,-4.94
2018-02-08T01:42:25.098Z,-4.86
2018-02-08T01:44:52.775Z,-4.89
2018-02-08T01:47:20.400Z,-4.96
2018-02-08T01:49:49.258Z,-5.21
2018-02-08T01:52:17.650Z,-5.35
2018-02-08T01:54:46.127Z,-5.12
2018-02-08T01:57:13.851Z,-5.08
2018-02-08T01:59:42.318Z,-5.22
2018-02-08T02:02:09.906Z,-5.27
2018-02-08T02:04:37.491Z,-5.35
2018-02-08T02:07:05.170Z,-5.34
2018-02-08T02:09:32.818Z,-5.37
2018-02-08T02:12:00.402Z,-5.46
2018-02-08T02:14:27.998Z,-5.40
2018-02-08T02:16:55.590Z,-5.40
2018-02-08T02:19:23.178Z,-5.35
2018-02-08T02:21:50.767Z,-5.40
2018-02-08T02:24:18.358Z,-5.33
2018-02-08T02:26:46.016Z,-5.42
2018-02-08T02:29:14.498Z,-5.44
2018-02-08T02:31:42.089Z,-5.25
2018-02-08T02:34:09.814Z,-5.45
2018-02-08T02:36:37.406Z,-5.41
2018-02-08T02:39:05.026Z,-5.21
2018-02-08T02:41:32.658Z,-5.29
2018-02-08T02:44:00.308Z,-5.33
2018-02-08T02:46:27.903Z,-5.52
2018-02-08T02:48:55.491Z,-5.62
2018-02-08T02:51:23.123Z,-5.63
2018-02-08T02:53:50.719Z,-5.67
2018-02-08T02:56:18.312Z,-5.70
2018-02-08T02:58:45.900Z,-5.71
2018-02-08T03:01:13.535Z,-5.52
2018-02-08T03:03:41.126Z,-5.38
2018-02-08T03:06:08.713Z,-5.48
2018-02-08T03:08:36.306Z,-5.47
2018-02-08T03:11:03.899Z,-5.73
2018-02-08T03:13:31.482Z,-5.71
2018-02-08T03:15:59.072Z,-5.77
2018-02-08T03:18:26.667Z,-5.85
2018-02-08T03:20:54.259Z,-5.91
2018-02-08T03:23:21.850Z,-5.96
2018-02-08T03:25:49.439Z,-5.98
2018-02-08T03:28:17.050Z,-6.02
2018-02-08T03:30:48.135Z,-6.09
2018-02-08T03:33:15.728Z,-5.86
2018-02-08T03:35:43.316Z,-5.89
2018-02-08T03:38:10.907Z,-5.97
2018-02-08T03:40:38.535Z,-6.03
2018-02-08T03:43:06.132Z,-5.95
2018-02-08T03:45:33.725Z,-6.04
2018-02-08T03:48:01.315Z,-6.08
2018-02-08T03:50:28.905Z,-6.09
2018-02-08T03:52:56.490Z,-6.03
2018-02-08T03:55:24.080Z,-6.04
2018-02-08T03:57:51.714Z,-5.98
2018-02-08T04:00:19.306Z,-6.03
2018-02-08T04:02:46.901Z,-6.01
2018-02-08T04:05:14.487Z,-6.05
2018-02-08T04:07:42.075Z,-6.06
2018-02-08T04:10:09.663Z,-6.05
2018-02-08T04:12:37.252Z,-6.12
2018-02-08T04:15:04.839Z,-6.12
2018-02-08T04:17:32.463Z,-6.20
2018-02-08T04:20:00.064Z,-6.18
2018-02-08T04:22:27.655Z,-6.21
2018-02-08T04:24:55.259Z,-6.21
2018-02-08T04:27:22.856Z,-6.09
2018-02-08T04:29:50.448Z,-6.16
2018-02-08T04:32:18.087Z,-6.16
2018-02-08T04:34:45.675Z,-6.26
2018-02-08T04:37:13.316Z,-6.31
2018-02-08T04:39:52.569Z,-6.22
2018-02-08T04:45:32.897Z,-6.20
2018-02-08T04:48:08.400Z,-6.36
2018-02-08T04:50:35.997Z,-6.37
2018-02-08T04:53:03.588Z,-6.42
2018-02-08T04:55:31.214Z,-6.44
2018-02-08T04:57:58.801Z,-6.39
2018-02-08T05:00:26.559Z,-6.44
2018-02-08T05:02:54.147Z,-6.45
2018-02-08T05:05:21.773Z,-6.48
2018-02-08T05:07:49.365Z,-6.40
2018-02-08T05:10:17.014Z,-6.43
2018-02-08T05:12:44.666Z,-6.45
2018-02-08T05:15:12.254Z,-6.44
2018-02-08T05:17:39.843Z,-6.48
2018-02-08T05:20:07.495Z,-6.49
2018-02-08T05:22:35.101Z,-6.41
2018-02-08T05:25:02.707Z,-6.52
2018-02-08T05:27:30.299Z,-6.48
2018-02-08T05:29:58.033Z,-6.53
2018-02-08T05:32:25.627Z,-6.44
2018-02-08T05:34:53.250Z,-6.62
2018-02-08T05:37:20.845Z,-6.71
2018-02-08T05:39:48.854Z,-6.79
2018-02-08T05:42:16.446Z,-6.83
2018-02-08T05:44:44.070Z,-6.84
2018-02-08T05:47:11.700Z,-6.84
2018-02-08T05:49:39.282Z,-6.84
2018-02-08T05:52:06.903Z,-6.91
2018-02-08T05:54:34.491Z,-6.97
2018-02-08T05:57:02.193Z,-6.94
2018-02-08T05:59:29.783Z,-6.68
2018-02-08T06:01:57.458Z,-6.79
2018-02-08T06:04:25.081Z,-6.88
2018-02-08T06:06:52.664Z,-6.62
2018-02-08T06:09:20.291Z,-6.63
2018-02-08T06:11:47.918Z,-6.64
2018-02-08T06:14:15.506Z,-6.78
2018-02-08T06:16:43.186Z,-6.80
2018-02-08T06:19:10.772Z,-6.82
2018-02-08T06:21:38.403Z,-6.86
2018-02-08T06:24:05.996Z,-6.88
2018-02-08T06:26:33.591Z,-6.88
2018-02-08T06:29:01.186Z,-6.87
2018-02-08T06:31:28.783Z,-6.80
2018-02-08T06:33:56.407Z,-6.82
2018-02-08T06:36:24.007Z,-6.75
2018-02-08T06:38:51.631Z,-6.75
2018-02-08T06:41:19.305Z,-6.72
2018-02-08T06:43:46.962Z,-6.63
2018-02-08T06:46:14.626Z,-6.53
2018-02-08T06:48:42.291Z,-6.65
2018-02-08T06:51:09.910Z,-6.66
2018-02-08T06:53:37.535Z,-6.71
2018-02-08T06:56:05.127Z,-6.71
2018-02-08T06:58:32.989Z,-6.74
2018-02-08T07:01:00.579Z,-6.75
2018-02-08T07:03:28.214Z,-6.72
2018-02-08T07:05:55.810Z,-6.69
2018-02-08T07:08:23.500Z,-6.71
2018-02-08T07:10:51.154Z,-6.74
2018-02-08T07:13:18.750Z,-6.73
2018-02-08T07:15:47.047Z,-6.72
2018-02-08T07:18:14.635Z,-6.70
2018-02-08T07:20:42.236Z,-6.68
2018-02-08T07:23:09.827Z,-6.65
2018-02-08T07:25:37.590Z,-6.59
2018-02-08T07:28:05.241Z,-6.53
2018-02-08T07:30:32.871Z,-6.45
2018-02-08T07:33:00.474Z,-6.40
2018-02-08T07:35:28.208Z,-6.29
2018-02-08T07:37:55.832Z,-6.06
2018-02-08T07:40:23.419Z,-5.84
2018-02-08T07:42:51.018Z,-5.70
2018-02-08T07:45:18.603Z,-5.71
2018-02-08T07:47:46.188Z,-5.65
2018-02-08T07:50:13.795Z,-5.62
2018-02-08T07:52:41.472Z,-5.62
2018-02-08T07:55:09.136Z,-5.55
2018-02-08T07:57:36.722Z,-5.39
2018-02-08T08:00:04.315Z,-5.23
2018-02-08T08:02:31.975Z,-5.06
2018-02-08T08:04:59.571Z,-4.74
2018-02-08T08:07:27.163Z,-4.81
2018-02-08T08:09:54.759Z,-4.84
2018-02-08T08:12:22.351Z,-4.80
2018-02-08T08:14:49.988Z,-4.71
2018-02-08T08:17:17.590Z,-4.61
2018-02-08T08:19:45.212Z,-4.52
2018-02-08T08:22:12.844Z,-4.43
2018-02-08T08:24:40.436Z,-4.22
2018-02-08T08:27:08.095Z,-4.14
2018-02-08T08:29:35.688Z,-4.02
2018-02-08T08:32:03.283Z,-3.92
2018-02-08T08:34:30.985Z,-3.91
2018-02-08T08:36:58.572Z,-3.79
2018-02-08T08:39:26.167Z,-3.68
2018-02-08T08:41:53.760Z,-3.45
2018-02-08T08:44:21.358Z,-3.37
2018-02-08T08:46:48.954Z,-3.23
2018-02-08T08:49:16.546Z,-3.14
2018-02-08T08:51:44.212Z,-3.01
2018-02-08T08:54:11.802Z,-2.90
2018-02-08T08:56:39.394Z,-2.89
2018-02-08T08:59:07.144Z,-2.84
2018-02-08T09:01:34.774Z,-2.83
2018-02-08T09:04:02.406Z,-2.59
2018-02-08T09:06:30.007Z,-2.47
2018-02-08T09:08:57.637Z,-2.47
2018-02-08T09:11:25.869Z,-2.43
2018-02-08T09:13:53.455Z,-2.38
2018-02-08T09:16:21.047Z,-2.42
2018-02-08T09:18:48.711Z,-2.10
2018-02-08T09:21:16.420Z,-2.02
2018-02-08T09:23:44.015Z,-1.70
2018-02-08T09:26:11.696Z,-1.57
2018-02-08T09:28:39.292Z,-1.51
2018-02-08T09:31:06.956Z,-1.34
2018-02-08T09:33:34.616Z,-1.40
2018-02-08T09:36:02.923Z,-1.32
2018-02-08T09:38:30.555Z,-1.26
2018-02-08T09:40:58.183Z,-1.13
2018-02-08T09:43:25.854Z,-0.98
2018-02-08T09:45:53.479Z,-0.78
2018-02-08T09:48:21.103Z,-0.65
2018-02-08T09:50:48.740Z,-0.69
2018-02-08T09:53:16.349Z,-0.61
2018-02-08T09:55:44.097Z,-0.86
2018-02-08T09:58:11.682Z,-0.86
2018-02-08T10:00:39.276Z,-0.74
2018-02-08T10:03:06.908Z,-0.50
2018-02-08T10:05:34.607Z,-0.35
2018-02-08T10:08:02.301Z,-0.21
2018-02-08T10:10:29.931Z,-0.28
2018-02-08T10:12:57.523Z,-0.18
2018-02-08T10:15:25.151Z,-0.05
2018-02-08T10:17:52.822Z,-0.05
2018-02-08T10:20:20.451Z,0.01
2018-02-08T10:22:48.075Z,0.05
2018-02-08T10:25:15.738Z,0.17
2018-02-08T10:27:43.336Z,0.25
2018-02-08T10:30:11.038Z,0.41
2018-02-08T10:32:38.623Z,0.63
2018-02-08T10:35:06.259Z,0.63
2018-02-08T10:37:33.835Z,0.53
2018-02-08T10:40:01.427Z,0.57
2018-02-08T10:42:29.014Z,0.56
2018-02-08T10:44:56.635Z,0.71
2018-02-08T10:47:24.218Z,0.78
2018-02-08T10:49:51.806Z,0.71
2018-02-08T10:52:19.538Z,0.86
2018-02-08T10:54:47.108Z,0.90
2018-02-08T10:57:14.707Z,1.07
2018-02-08T10:59:42.320Z,1.16
2018-02-08T11:02:09.929Z,1.02
2018-02-08T11:04:37.513Z,1.08
2018-02-08T11:07:05.091Z,1.21
2018-02-08T11:09:32.718Z,1.09
2018-02-08T11:12:00.302Z,1.24
2018-02-08T11:14:27.888Z,1.25
2018-02-08T11:16:55.467Z,1.21
2018-02-08T11:19:23.054Z,1.28
2018-02-08T11:21:50.723Z,1.41
2018-02-08T11:24:18.303Z,1.64
2018-02-08T11:26:45.946Z,1.48
2018-02-08T11:29:13.573Z,1.55
2018-02-08T11:31:41.159Z,1.55
2018-02-08T11:34:08.784Z,1.60
2018-02-08T11:36:36.390Z,1.60
2018-02-08T11:39:03.984Z,1.57
2018-02-08T11:41:31.624Z,1.70
2018-02-08T11:43:59.214Z,1.74
2018-02-08T11:46:26.839Z,1.86
2018-02-08T11:48:54.418Z,1.72
2018-02-08T11:51:22.048Z,1.91
2018-02-08T11:53:49.728Z,1.94
2018-02-08T11:56:17.400Z,2.06
2018-02-08T11:58:44.983Z,2.22
2018-02-08T12:01:12.619Z,2.15
2018-02-08T12:03:40.193Z,2.03
2018-02-08T12:06:07.771Z,1.97
2018-02-08T12:08:35.387Z,2.11
2018-02-08T12:11:02.976Z,2.06
2018-02-08T12:13:30.599Z,1.94
2018-02-08T12:15:58.187Z,1.86
2018-02-08T12:18:25.768Z,1.76
2018-02-08T12:20:53.346Z,1.93
2018-02-08T12:23:20.927Z,2.07
2018-02-08T12:25:48.511Z,2.07
2018-02-08T12:28:16.884Z,2.13
2018-02-08T12:30:44.463Z,2.20
2018-02-08T12:33:12.132Z,2.40
2018-02-08T12:35:39.791Z,2.40
2018-02-08T12:38:07.455Z,2.37
2018-02-08T12:40:35.075Z,2.32
2018-02-08T12:43:02.656Z,2.60
2018-02-08T12:45:30.236Z,2.55
2018-02-08T12:47:57.828Z,2.55
2018-02-08T12:50:25.496Z,2.31
2018-02-08T12:52:53.082Z,2.49
2018-02-08T12:55:20.659Z,2.22
2018-02-08T12:57:48.240Z,2.07
2018-02-08T13:00:15.859Z,2.16
2018-02-08T13:02:43.508Z,2.30
2018-02-08T13:05:11.130Z,2.13
2018-02-08T13:07:38.743Z,2.03
2018-02-08T13:10:06.371Z,1.97
2018-02-08T13:12:33.947Z,1.86
2018-02-08T13:15:01.528Z,1.98
2018-02-08T13:17:29.138Z,2.01
2018-02-08T13:19:56.749Z,2.11
2018-02-08T13:22:24.335Z,2.20
2018-02-08T13:24:51.915Z,2.11
2018-02-08T13:27:19.578Z,1.99
2018-02-08T13:29:47.150Z,2.08
2018-02-08T13:32:17.287Z,1.88
2018-02-08T13:34:44.878Z,1.89
2018-02-08T13:37:12.486Z,2.07
2018-02-08T13:39:41.037Z,2.16
2018-02-08T13:42:10.531Z,2.45
2018-02-08T13:44:38.123Z,2.28
2018-02-08T13:50:15.162Z,2.27
2018-02-08T13:55:48.398Z,2.28
2018-02-08T13:58:21.587Z,2.34
2018-02-08T14:00:49.492Z,2.43
2018-02-08T14:03:17.148Z,2.54
2018-02-08T14:05:44.731Z,2.30
2018-02-08T14:08:12.379Z,2.45
2018-02-08T14:10:39.994Z,2.55
2018-02-08T14:13:07.677Z,2.56
2018-02-08T14:15:35.288Z,2.39
2018-02-08T14:18:02.875Z,2.44
2018-02-08T14:20:30.487Z,2.50
2018-02-08T14:22:58.066Z,2.49
2018-02-08T14:25:25.682Z,2.45
2018-02-08T14:27:53.299Z,2.34
2018-02-08T14:30:20.966Z,2.44
2018-02-08T14:32:48.627Z,2.22
2018-02-08T14:35:16.288Z,1.98
2018-02-08T14:37:43.912Z,2.25
2018-02-08T14:40:11.548Z,1.92
2018-02-08T14:42:39.211Z,2.01
2018-02-08T14:45:06.825Z,2.06
2018-02-08T14:47:34.557Z,2.00
2018-02-08T14:50:02.135Z,1.93
2018-02-08T14:52:29.755Z,1.83
2018-02-08T14:54:57.332Z,1.76
2018-02-08T14:57:24.951Z,1.78
2018-02-08T14:59:52.586Z,1.78
2018-02-08T15:02:20.280Z,1.84
2018-02-08T15:04:47.939Z,1.79
2018-02-08T15:07:15.554Z,1.50
2018-02-08T15:09:43.167Z,1.63
2018-02-08T15:12:10.827Z,1.52
2018-02-08T15:14:38.459Z,1.27
2018-02-08T15:17:06.078Z,1.06
2018-02-08T15:19:33.712Z,1.00
2018-02-08T15:22:01.292Z,0.89
2018-02-08T15:24:29.150Z,0.81
2018-02-08T15:26:56.855Z,0.69
2018-02-08T15:29:24.435Z,0.60
2018-02-08T15:31:52.011Z,0.56
2018-02-08T15:34:19.594Z,0.48
2018-02-08T15:36:47.282Z,0.43
2018-02-08T15:39:14.910Z,0.33
2018-02-08T15:41:42.489Z,0.22
2018-02-08T15:44:10.130Z,0.16
2018-02-08T15:46:37.728Z,0.07
2018-02-08T15:49:05.359Z,-0.06
2018-02-08T15:51:33.023Z,-0.20
2018-02-08T15:54:00.635Z,-0.23
2018-02-08T15:56:28.283Z,-0.29
2018-02-08T15:58:55.872Z,-0.33
2018-02-08T16:01:23.579Z,-0.43
2018-02-08T16:03:51.182Z,-0.50
2018-02-08T16:06:18.771Z,-0.58
2018-02-08T16:08:46.364Z,-0.66
2018-02-08T16:11:13.983Z,-0.71
2018-02-08T16:13:41.571Z,-0.88
2018-02-08T16:16:09.162Z,-0.95
2018-02-08T16:18:36.751Z,-1.00
2018-02-08T16:21:04.339Z,-1.12
2018-02-08T16:23:31.931Z,-1.24
2018-02-08T16:25:59.550Z,-1.14
2018-02-08T16:28:27.136Z,-0.93
2018-02-08T16:30:54.736Z,-0.89
2018-02-08T16:33:22.366Z,-1.13
2018-02-08T16:35:49.958Z,-1.27
2018-02-08T16:38:17.645Z,-1.41
2018-02-08T16:40:45.274Z,-1.30
2018-02-08T16:43:12.919Z,-1.32
2018-02-08T16:45:40.552Z,-1.49
2018-02-08T16:48:08.140Z,-1.54
2018-02-08T16:50:35.726Z,-1.62
2018-02-08T16:53:03.320Z,-1.67
2018-02-08T16:55:31.034Z,-1.76
2018-02-08T16:57:58.628Z,-1.82
2018-02-08T17:00:26.214Z,-1.77
2018-02-08T17:02:53.803Z,-1.85
2018-02-08T17:05:21.528Z,-1.92
2018-02-08T17:07:49.179Z,-1.94
2018-02-08T17:10:16.771Z,-1.92
2018-02-08T17:12:44.366Z,-1.94
2018-02-08T17:15:11.960Z,-2.04
2018-02-08T17:17:39.595Z,-2.09
2018-02-08T17:20:07.182Z,-2.16
2018-02-08T17:22:34.773Z,-2.21
2018-02-08T17:25:02.364Z,-2.23
2018-02-08T17:27:29.956Z,-2.24
2018-02-08T17:29:57.637Z,-2.33
2018-02-08T17:32:25.222Z,-2.37
2018-02-08T17:34:52.843Z,-2.39
2018-02-08T17:37:20.429Z,-2.48
2018-02-08T17:39:48.018Z,-2.49
2018-02-08T17:42:15.599Z,-2.49
2018-02-08T17:44:43.232Z,-2.51
2018-02-08T17:47:10.832Z,-2.59
2018-02-08T17:49:38.426Z,-2.65
2018-02-08T17:52:06.008Z,-2.66
2018-02-08T17:54:33.595Z,-2.70
2018-02-08T17:57:01.183Z,-2.74
2018-02-08T17:59:28.777Z,-2.70
2018-02-08T18:01:56.382Z,-2.74
2018-02-08T18:04:23.971Z,-2.76
2018-02-08T18:06:51.564Z,-2.82
2018-02-08T18:09:19.151Z,-2.82
2018-02-08T18:11:46.734Z,-2.82
2018-02-08T18:14:14.378Z,-2.90
2018-02-08T18:16:42.990Z,-2.95
2018-02-08T18:19:10.623Z,-2.99
2018-02-08T18:21:38.210Z,-3.05
2018-02-08T18:24:05.803Z,-3.07
2018-02-08T18:26:33.399Z,-3.05
2018-02-08T18:29:01.039Z,-3.09
2018-02-08T18:31:28.672Z,-3.08
2018-02-08T18:33:56.330Z,-3.09
2018-02-08T18:36:23.922Z,-3.15
2018-02-08T18:38:51.511Z,-3.14
2018-02-08T18:41:19.108Z,-3.13
2018-02-08T18:43:46.714Z,-3.11
2018-02-08T18:46:14.303Z,-3.14
2018-02-08T18:48:42.795Z,-3.22
2018-02-08T18:51:10.390Z,-3.28
2018-02-08T18:53:38.020Z,-3.31
2018-02-08T18:56:05.651Z,-3.31
2018-02-08T18:58:33.288Z,-3.25
2018-02-08T19:01:00.879Z,-3.27
2018-02-08T19:03:28.512Z,-3.34
2018-02-08T19:05:56.106Z,-3.36
2018-02-08T19:08:23.807Z,-3.41
2018-02-08T19:10:51.390Z,-3.43
2018-02-08T19:13:18.984Z,-3.47
2018-02-08T19:15:46.678Z,-3.47
2018-02-08T19:18:14.267Z,-3.46
2018-02-08T19:20:41.858Z,-3.53
2018-02-08T19:23:09.531Z,-3.50
2018-02-08T19:25:37.119Z,-3.59
2018-02-08T19:28:04.707Z,-3.57
2018-02-08T19:30:32.419Z,-3.62
2018-02-08T19:33:00.011Z,-3.63
2018-02-08T19:35:27.599Z,-3.70
2018-02-08T19:37:57.709Z,-3.72
2018-02-08T19:40:25.439Z,-3.72
2018-02-08T19:42:53.086Z,-3.74
2018-02-08T19:45:20.728Z,-3.76
2018-02-08T19:47:49.078Z,-3.78
2018-02-08T19:50:19.361Z,-3.77
2018-02-08T19:52:47.472Z,-3.83
2018-02-08T19:55:16.117Z,-3.78
2018-02-08T19:57:44.677Z,-3.77
2018-02-08T20:00:13.128Z,-3.85
2018-02-08T20:02:42.182Z,-3.89
2018-02-08T20:05:10.753Z,-3.87
2018-02-08T20:07:38.531Z,-3.85
2018-02-08T20:10:06.340Z,-3.89
2018-02-08T20:12:34.059Z,-3.92
2018-02-08T20:15:01.770Z,-3.97
2018-02-08T20:17:29.604Z,-4.00
2018-02-08T20:19:57.430Z,-4.02
2018-02-08T20:22:25.064Z,-4.08
2018-02-08T20:24:52.787Z,-4.08
2018-02-08T20:27:20.411Z,-4.14
2018-02-08T20:29:48.133Z,-4.08
2018-02-08T20:32:16.229Z,-4.08
2018-02-08T20:34:43.982Z,-4.09
2018-02-08T20:37:11.567Z,-4.06
2018-02-08T20:39:39.175Z,-4.16
2018-02-08T20:42:06.762Z,-4.13
2018-02-08T20:44:34.413Z,-4.10
2018-02-08T20:47:02.027Z,-4.13
2018-02-08T20:49:29.872Z,-4.18
2018-02-08T20:51:57.641Z,-4.24
2018-02-08T20:54:25.588Z,-4.27
2018-02-08T20:56:53.221Z,-4.33
2018-02-08T20:59:20.850Z,-4.41
2018-02-08T21:01:48.514Z,-4.45
2018-02-08T21:04:16.183Z,-4.44
2018-02-08T21:06:43.773Z,-4.50
2018-02-08T21:09:11.435Z,-4.54
2018-02-08T21:11:39.137Z,-4.56
2018-02-08T21:14:06.922Z,-4.59
2018-02-08T21:16:34.598Z,-4.58
2018-02-08T21:19:02.191Z,-4.65
2018-02-08T21:21:29.818Z,-4.57
2018-02-08T21:23:57.487Z,-4.62
2018-02-08T21:26:25.274Z,-4.70
2018-02-08T21:28:52.915Z,-4.70
2018-02-08T21:31:20.502Z,-4.77
2018-02-08T21:33:48.105Z,-4.76
2018-02-08T21:36:15.696Z,-4.81
2018-02-08T21:38:43.392Z,-4.87
2018-02-08T21:41:11.059Z,-4.90
2018-02-08T21:43:38.682Z,-4.93
2018-02-08T21:46:06.436Z,-4.97
2018-02-08T21:48:34.074Z,-5.01
2018-02-08T21:51:01.660Z,-5.05
2018-02-08T21:53:29.368Z,-5.07
2018-02-08T21:55:56.951Z,-5.07
2018-02-08T21:58:24.558Z,-5.12
2018-02-08T22:00:52.142Z,-5.12
2018-02-08T22:03:19.815Z,-5.07
2018-02-08T22:05:47.398Z,-4.96
2018-02-08T22:08:15.018Z,-4.93
2018-02-08T22:10:42.700Z,-4.92
2018-02-08T22:13:10.295Z,-4.98
2018-02-08T22:15:37.882Z,-5.02
2018-02-08T22:18:05.487Z,-4.97
2018-02-08T22:20:33.075Z,-5.06
2018-02-08T22:23:00.714Z,-5.04
2018-02-08T22:25:28.306Z,-4.94
2018-02-08T22:27:55.895Z,-5.15
2018-02-08T22:30:23.600Z,-5.18
2018-02-08T22:32:51.743Z,-5.24
2018-02-08T22:35:19.332Z,-5.26
2018-02-08T22:37:46.914Z,-5.29
2018-02-08T22:40:14.503Z,-5.28
2018-02-08T22:42:42.123Z,-5.09
2018-02-08T22:45:09.774Z,-5.08
2018-02-08T22:47:37.388Z,-5.21
2018-02-08T22:50:05.052Z,-5.36
2018-02-08T22:52:32.639Z,-5.41
2018-02-08T22:55:00.224Z,-5.48
2018-02-08T22:57:27.891Z,-5.43
2018-02-08T22:59:55.482Z,-5.42
2018-02-08T23:02:23.067Z,-5.36
2018-02-08T23:04:50.668Z,-5.52
2018-02-08T23:07:18.335Z,-5.53
2018-02-08T23:09:45.919Z,-5.52
2018-02-08T23:12:13.508Z,-5.60
2018-02-08T23:14:41.103Z,-5.51
2018-02-08T23:17:08.692Z,-5.56
2018-02-08T23:19:36.381Z,-5.64
2018-02-08T23:22:04.007Z,-5.61
2018-02-08T23:24:31.592Z,-5.64
2018-02-08T23:26:59.178Z,-5.70
2018-02-08T23:29:26.761Z,-5.77
2018-02-08T23:31:54.355Z,-5.77
2018-02-08T23:34:21.975Z,-5.76
2018-02-08T23:36:49.560Z,-5.76
2018-02-08T23:39:17.236Z,-5.87
2018-02-08T23:41:44.950Z,-5.82
2018-02-08T23:44:12.536Z,-5.80
2018-02-08T23:46:40.120Z,-5.71
2018-02-08T23:49:07.706Z,-5.74
2018-02-08T23:51:35.292Z,-5.70
2018-02-08T23:54:02.879Z,-5.70
2018-02-08T23:56:30.500Z,-5.68
2018-02-08T23:58:58.091Z,-5.64
